sensor_id;sensor_type;location;lat;lon;timestamp;P1;durP1;ratioP1;P2;durP2;ratioP2
32198;SDS011;19221;42.656;21.156;2023-03-14T00:00:51;117.32;;;60.20;;
32198;SDS011;19221;42.656;21.156;2023-03-14T00:03:17;108.88;;;58.08;;
32198;SDS011;19221;42.656;21.156;2023-03-14T00:05:43;109.80;;;57.17;;
32198;SDS011;19221;42.656;21.156;2023-03-14T00:08:08;114.03;;;59.63;;
32198;SDS011;19221;42.656;21.156;2023-03-14T00:10:35;112.93;;;59.15;;
32198;SDS011;19221;42.656;21.156;2023-03-14T00:13:01;112.25;;;59.08;;
32198;SDS011;19221;42.656;21.156;2023-03-14T00:15:26;100.60;;;57.28;;
32198;SDS011;19221;42.656;21.156;2023-03-14T00:17:52;75.40;;;39.28;;
32198;SDS011;19221;42.656;21.156;2023-03-14T00:20:18;75.53;;;37.97;;
32198;SDS011;19221;42.656;21.156;2023-03-14T00:22:44;72.35;;;34.55;;
32198;SDS011;19221;42.656;21.156;2023-03-14T00:25:10;56.30;;;29.45;;
32198;SDS011;19221;42.656;21.156;2023-03-14T00:27:36;52.72;;;29.52;;
32198;SDS011;19221;42.656;21.156;2023-03-14T00:30:02;63.08;;;29.92;;
32198;SDS011;19221;42.656;21.156;2023-03-14T00:32:28;52.03;;;29.55;;
32198;SDS011;19221;42.656;21.156;2023-03-14T00:34:53;65.40;;;31.42;;
32198;SDS011;19221;42.656;21.156;2023-03-14T00:37:19;54.70;;;29.08;;
32198;SDS011;19221;42.656;21.156;2023-03-14T00:39:46;60.28;;;30.85;;
32198;SDS011;19221;42.656;21.156;2023-03-14T00:42:13;77.85;;;40.03;;
32198;SDS011;19221;42.656;21.156;2023-03-14T00:44:38;72.35;;;36.15;;
32198;SDS011;19221;42.656;21.156;2023-03-14T00:47:04;47.28;;;27.10;;
32198;SDS011;19221;42.656;21.156;2023-03-14T00:49:30;51.55;;;26.63;;
32198;SDS011;19221;42.656;21.156;2023-03-14T00:51:55;43.65;;;25.10;;
32198;SDS011;19221;42.656;21.156;2023-03-14T00:54:21;48.53;;;25.40;;
32198;SDS011;19221;42.656;21.156;2023-03-14T00:56:47;52.63;;;27.67;;
32198;SDS011;19221;42.656;21.156;2023-03-14T00:59:12;50.28;;;28.55;;
32198;SDS011;19221;42.656;21.156;2023-03-14T01:01:39;65.03;;;30.67;;
32198;SDS011;19221;42.656;21.156;2023-03-14T01:04:05;61.72;;;33.78;;
32198;SDS011;19221;42.656;21.156;2023-03-14T01:06:31;68.07;;;36.08;;
32198;SDS011;19221;42.656;21.156;2023-03-14T01:08:57;74.75;;;38.03;;
32198;SDS011;19221;42.656;21.156;2023-03-14T01:11:24;66.82;;;36.35;;
32198;SDS011;19221;42.656;21.156;2023-03-14T01:13:50;68.05;;;37.97;;
32198;SDS011;19221;42.656;21.156;2023-03-14T01:16:16;65.93;;;36.47;;
32198;SDS011;19221;42.656;21.156;2023-03-14T01:18:43;67.53;;;36.63;;
32198;SDS011;19221;42.656;21.156;2023-03-14T01:21:10;67.82;;;36.75;;
32198;SDS011;19221;42.656;21.156;2023-03-14T01:23:36;64.95;;;35.83;;
32198;SDS011;19221;42.656;21.156;2023-03-14T01:26:02;70.18;;;36.00;;
32198;SDS011;19221;42.656;21.156;2023-03-14T01:28:28;66.70;;;35.92;;
32198;SDS011;19221;42.656;21.156;2023-03-14T01:30:53;66.50;;;37.33;;
32198;SDS011;19221;42.656;21.156;2023-03-14T01:33:19;70.70;;;38.00;;
32198;SDS011;19221;42.656;21.156;2023-03-14T01:35:45;63.80;;;36.33;;
32198;SDS011;19221;42.656;21.156;2023-03-14T01:38:10;67.65;;;36.65;;
32198;SDS011;19221;42.656;21.156;2023-03-14T01:40:43;71.95;;;36.70;;
32198;SDS011;19221;42.656;21.156;2023-03-14T01:43:18;64.57;;;34.97;;
32198;SDS011;19221;42.656;21.156;2023-03-14T01:48:39;62.72;;;36.17;;
32198;SDS011;19221;42.656;21.156;2023-03-14T01:51:10;64.90;;;34.28;;
32198;SDS011;19221;42.656;21.156;2023-03-14T01:53:37;57.45;;;30.88;;
32198;SDS011;19221;42.656;21.156;2023-03-14T01:56:05;58.90;;;30.13;;
32198;SDS011;19221;42.656;21.156;2023-03-14T01:58:31;53.78;;;27.45;;
32198;SDS011;19221;42.656;21.156;2023-03-14T02:00:59;50.80;;;26.10;;
32198;SDS011;19221;42.656;21.156;2023-03-14T02:03:26;46.35;;;26.05;;
32198;SDS011;19221;42.656;21.156;2023-03-14T02:05:54;50.03;;;26.50;;
32198;SDS011;19221;42.656;21.156;2023-03-14T02:08:21;52.10;;;27.20;;
32198;SDS011;19221;42.656;21.156;2023-03-14T02:10:48;43.95;;;24.40;;
32198;SDS011;19221;42.656;21.156;2023-03-14T02:13:15;34.28;;;20.20;;
32198;SDS011;19221;42.656;21.156;2023-03-14T02:15:42;36.92;;;19.00;;
32198;SDS011;19221;42.656;21.156;2023-03-14T02:18:08;40.88;;;21.13;;
32198;SDS011;19221;42.656;21.156;2023-03-14T02:23:26;36.13;;;20.85;;
32198;SDS011;19221;42.656;21.156;2023-03-14T02:25:57;32.92;;;17.70;;
32198;SDS011;19221;42.656;21.156;2023-03-14T02:28:26;35.70;;;18.95;;
32198;SDS011;19221;42.656;21.156;2023-03-14T02:30:52;39.50;;;19.50;;
32198;SDS011;19221;42.656;21.156;2023-03-14T02:33:19;36.40;;;20.20;;
32198;SDS011;19221;42.656;21.156;2023-03-14T02:35:50;33.80;;;18.67;;
32198;SDS011;19221;42.656;21.156;2023-03-14T02:38:19;36.75;;;17.95;;
32198;SDS011;19221;42.656;21.156;2023-03-14T02:40:46;32.05;;;17.70;;
32198;SDS011;19221;42.656;21.156;2023-03-14T02:43:12;34.65;;;18.08;;
32198;SDS011;19221;42.656;21.156;2023-03-14T02:45:39;31.10;;;18.15;;
32198;SDS011;19221;42.656;21.156;2023-03-14T02:48:15;40.97;;;20.80;;
32198;SDS011;19221;42.656;21.156;2023-03-14T02:50:42;40.72;;;20.65;;
32198;SDS011;19221;42.656;21.156;2023-03-14T02:53:08;40.85;;;22.88;;
32198;SDS011;19221;42.656;21.156;2023-03-14T02:55:34;42.53;;;23.15;;
32198;SDS011;19221;42.656;21.156;2023-03-14T02:58:00;34.17;;;21.35;;
32198;SDS011;19221;42.656;21.156;2023-03-14T03:00:25;52.42;;;24.95;;
32198;SDS011;19221;42.656;21.156;2023-03-14T03:02:51;43.25;;;25.30;;
32198;SDS011;19221;42.656;21.156;2023-03-14T03:05:17;49.67;;;26.92;;
32198;SDS011;19221;42.656;21.156;2023-03-14T03:07:42;51.05;;;27.20;;
32198;SDS011;19221;42.656;21.156;2023-03-14T03:10:08;53.47;;;29.25;;
32198;SDS011;19221;42.656;21.156;2023-03-14T03:12:34;51.72;;;30.02;;
32198;SDS011;19221;42.656;21.156;2023-03-14T03:15:00;58.38;;;30.80;;
32198;SDS011;19221;42.656;21.156;2023-03-14T03:17:25;55.30;;;31.17;;
32198;SDS011;19221;42.656;21.156;2023-03-14T03:19:51;55.50;;;30.23;;
32198;SDS011;19221;42.656;21.156;2023-03-14T03:22:16;52.67;;;29.92;;
32198;SDS011;19221;42.656;21.156;2023-03-14T03:24:42;52.03;;;29.42;;
32198;SDS011;19221;42.656;21.156;2023-03-14T03:27:09;47.97;;;27.67;;
32198;SDS011;19221;42.656;21.156;2023-03-14T03:29:35;48.15;;;27.75;;
32198;SDS011;19221;42.656;21.156;2023-03-14T03:32:01;44.78;;;27.00;;
32198;SDS011;19221;42.656;21.156;2023-03-14T03:34:27;46.72;;;26.42;;
32198;SDS011;19221;42.656;21.156;2023-03-14T03:36:55;45.33;;;26.17;;
32198;SDS011;19221;42.656;21.156;2023-03-14T03:39:21;44.25;;;24.88;;
32198;SDS011;19221;42.656;21.156;2023-03-14T03:41:46;39.70;;;23.63;;
32198;SDS011;19221;42.656;21.156;2023-03-14T03:44:12;49.22;;;27.42;;
32198;SDS011;19221;42.656;21.156;2023-03-14T03:46:38;46.47;;;27.00;;
32198;SDS011;19221;42.656;21.156;2023-03-14T03:49:04;47.85;;;26.10;;
32198;SDS011;19221;42.656;21.156;2023-03-14T03:51:29;48.65;;;25.88;;
32198;SDS011;19221;42.656;21.156;2023-03-14T03:53:55;43.67;;;24.48;;
32198;SDS011;19221;42.656;21.156;2023-03-14T03:56:21;42.25;;;24.02;;
32198;SDS011;19221;42.656;21.156;2023-03-14T03:58:47;43.47;;;25.90;;
32198;SDS011;19221;42.656;21.156;2023-03-14T04:01:12;47.17;;;26.65;;
32198;SDS011;19221;42.656;21.156;2023-03-14T04:03:38;53.92;;;27.77;;
32198;SDS011;19221;42.656;21.156;2023-03-14T04:08:30;43.92;;;24.58;;
32198;SDS011;19221;42.656;21.156;2023-03-14T04:10:56;53.42;;;23.85;;
32198;SDS011;19221;42.656;21.156;2023-03-14T04:13:23;46.38;;;25.60;;
32198;SDS011;19221;42.656;21.156;2023-03-14T04:15:48;50.40;;;26.52;;
32198;SDS011;19221;42.656;21.156;2023-03-14T04:18:14;49.63;;;27.27;;
32198;SDS011;19221;42.656;21.156;2023-03-14T04:20:40;47.28;;;26.60;;
32198;SDS011;19221;42.656;21.156;2023-03-14T04:23:05;45.72;;;26.92;;
32198;SDS011;19221;42.656;21.156;2023-03-14T04:25:31;48.53;;;27.45;;
32198;SDS011;19221;42.656;21.156;2023-03-14T04:27:57;49.40;;;28.38;;
32198;SDS011;19221;42.656;21.156;2023-03-14T04:30:22;52.13;;;28.58;;
32198;SDS011;19221;42.656;21.156;2023-03-14T04:32:48;51.10;;;27.25;;
32198;SDS011;19221;42.656;21.156;2023-03-14T04:35:14;55.50;;;28.33;;
32198;SDS011;19221;42.656;21.156;2023-03-14T04:37:39;46.85;;;23.77;;
32198;SDS011;19221;42.656;21.156;2023-03-14T04:40:07;38.92;;;22.20;;
32198;SDS011;19221;42.656;21.156;2023-03-14T04:42:33;39.22;;;23.45;;
32198;SDS011;19221;42.656;21.156;2023-03-14T04:44:59;40.17;;;22.15;;
32198;SDS011;19221;42.656;21.156;2023-03-14T04:47:25;35.35;;;20.88;;
32198;SDS011;19221;42.656;21.156;2023-03-14T04:49:51;34.75;;;20.90;;
32198;SDS011;19221;42.656;21.156;2023-03-14T04:52:17;42.10;;;23.48;;
32198;SDS011;19221;42.656;21.156;2023-03-14T04:54:44;53.78;;;29.23;;
32198;SDS011;19221;42.656;21.156;2023-03-14T04:57:09;52.35;;;29.02;;
32198;SDS011;19221;42.656;21.156;2023-03-14T04:59:35;49.35;;;29.05;;
32198;SDS011;19221;42.656;21.156;2023-03-14T05:02:00;48.75;;;29.52;;
32198;SDS011;19221;42.656;21.156;2023-03-14T05:04:26;54.38;;;30.13;;
32198;SDS011;19221;42.656;21.156;2023-03-14T05:06:52;60.40;;;33.08;;
32198;SDS011;19221;42.656;21.156;2023-03-14T05:09:17;60.67;;;35.70;;
32198;SDS011;19221;42.656;21.156;2023-03-14T05:11:43;57.25;;;34.00;;
32198;SDS011;19221;42.656;21.156;2023-03-14T05:14:10;54.45;;;32.10;;
32198;SDS011;19221;42.656;21.156;2023-03-14T05:16:35;66.63;;;35.60;;
32198;SDS011;19221;42.656;21.156;2023-03-14T05:19:01;64.18;;;34.17;;
32198;SDS011;19221;42.656;21.156;2023-03-14T05:21:27;58.17;;;33.90;;
32198;SDS011;19221;42.656;21.156;2023-03-14T05:23:52;62.30;;;35.60;;
32198;SDS011;19221;42.656;21.156;2023-03-14T05:26:18;60.70;;;33.58;;
32198;SDS011;19221;42.656;21.156;2023-03-14T05:28:44;62.65;;;31.05;;
32198;SDS011;19221;42.656;21.156;2023-03-14T05:31:10;52.75;;;28.75;;
32198;SDS011;19221;42.656;21.156;2023-03-14T05:33:35;49.55;;;28.77;;
32198;SDS011;19221;42.656;21.156;2023-03-14T05:36:01;51.60;;;29.90;;
32198;SDS011;19221;42.656;21.156;2023-03-14T05:38:27;56.08;;;31.23;;
32198;SDS011;19221;42.656;21.156;2023-03-14T05:40:52;56.58;;;31.75;;
32198;SDS011;19221;42.656;21.156;2023-03-14T05:43:18;58.78;;;31.23;;
32198;SDS011;19221;42.656;21.156;2023-03-14T05:45:44;55.63;;;30.52;;
32198;SDS011;19221;42.656;21.156;2023-03-14T05:48:09;54.42;;;31.83;;
32198;SDS011;19221;42.656;21.156;2023-03-14T05:50:35;57.78;;;32.97;;
32198;SDS011;19221;42.656;21.156;2023-03-14T05:53:01;59.88;;;35.63;;
32198;SDS011;19221;42.656;21.156;2023-03-14T05:55:27;68.03;;;36.63;;
32198;SDS011;19221;42.656;21.156;2023-03-14T05:57:53;67.35;;;39.67;;
32198;SDS011;19221;42.656;21.156;2023-03-14T06:00:19;65.40;;;37.97;;
32198;SDS011;19221;42.656;21.156;2023-03-14T06:02:45;57.60;;;31.75;;
32198;SDS011;19221;42.656;21.156;2023-03-14T06:05:10;59.20;;;30.52;;
32198;SDS011;19221;42.656;21.156;2023-03-14T06:07:36;53.70;;;29.15;;
32198;SDS011;19221;42.656;21.156;2023-03-14T06:10:02;56.63;;;31.45;;
32198;SDS011;19221;42.656;21.156;2023-03-14T06:12:28;51.00;;;29.92;;
32198;SDS011;19221;42.656;21.156;2023-03-14T06:14:53;52.38;;;31.38;;
32198;SDS011;19221;42.656;21.156;2023-03-14T06:17:19;54.40;;;30.73;;
32198;SDS011;19221;42.656;21.156;2023-03-14T06:19:45;57.80;;;30.73;;
32198;SDS011;19221;42.656;21.156;2023-03-14T06:22:10;66.53;;;33.25;;
32198;SDS011;19221;42.656;21.156;2023-03-14T06:24:36;55.88;;;27.33;;
32198;SDS011;19221;42.656;21.156;2023-03-14T06:27:02;59.13;;;28.23;;
32198;SDS011;19221;42.656;21.156;2023-03-14T06:29:28;54.92;;;26.80;;
32198;SDS011;19221;42.656;21.156;2023-03-14T06:31:54;53.15;;;27.27;;
32198;SDS011;19221;42.656;21.156;2023-03-14T06:34:20;40.33;;;20.67;;
32198;SDS011;19221;42.656;21.156;2023-03-14T06:36:45;38.85;;;18.65;;
32198;SDS011;19221;42.656;21.156;2023-03-14T06:39:12;40.28;;;19.00;;
32198;SDS011;19221;42.656;21.156;2023-03-14T06:41:38;36.15;;;19.42;;
32198;SDS011;19221;42.656;21.156;2023-03-14T06:44:04;45.50;;;20.52;;
32198;SDS011;19221;42.656;21.156;2023-03-14T06:46:30;49.45;;;22.40;;
32198;SDS011;19221;42.656;21.156;2023-03-14T06:48:55;41.70;;;21.35;;
32198;SDS011;19221;42.656;21.156;2023-03-14T06:51:21;47.40;;;23.42;;
32198;SDS011;19221;42.656;21.156;2023-03-14T06:53:47;30.20;;;14.15;;
32198;SDS011;19221;42.656;21.156;2023-03-14T06:56:12;31.30;;;16.27;;
32198;SDS011;19221;42.656;21.156;2023-03-14T06:58:38;36.00;;;18.40;;
32198;SDS011;19221;42.656;21.156;2023-03-14T07:01:04;43.72;;;20.48;;
32198;SDS011;19221;42.656;21.156;2023-03-14T07:03:30;46.25;;;19.45;;
32198;SDS011;19221;42.656;21.156;2023-03-14T07:05:56;44.85;;;19.58;;
32198;SDS011;19221;42.656;21.156;2023-03-14T07:08:22;39.40;;;18.70;;
32198;SDS011;19221;42.656;21.156;2023-03-14T07:10:47;35.42;;;18.88;;
32198;SDS011;19221;42.656;21.156;2023-03-14T07:13:13;34.95;;;18.58;;
32198;SDS011;19221;42.656;21.156;2023-03-14T07:15:39;31.75;;;16.77;;
32198;SDS011;19221;42.656;21.156;2023-03-14T07:18:04;30.98;;;16.77;;
32198;SDS011;19221;42.656;21.156;2023-03-14T07:20:30;31.50;;;16.55;;
32198;SDS011;19221;42.656;21.156;2023-03-14T07:22:57;37.42;;;17.95;;
32198;SDS011;19221;42.656;21.156;2023-03-14T07:25:25;41.95;;;17.70;;
32198;SDS011;19221;42.656;21.156;2023-03-14T07:27:50;39.83;;;19.00;;
32198;SDS011;19221;42.656;21.156;2023-03-14T07:30:16;38.10;;;18.15;;
32198;SDS011;19221;42.656;21.156;2023-03-14T07:32:42;42.28;;;20.10;;
32198;SDS011;19221;42.656;21.156;2023-03-14T07:35:11;40.80;;;20.17;;
32198;SDS011;19221;42.656;21.156;2023-03-14T07:37:36;44.03;;;21.23;;
32198;SDS011;19221;42.656;21.156;2023-03-14T07:40:02;44.25;;;20.58;;
32198;SDS011;19221;42.656;21.156;2023-03-14T07:42:30;41.90;;;20.48;;
32198;SDS011;19221;42.656;21.156;2023-03-14T07:44:56;34.20;;;18.10;;
32198;SDS011;19221;42.656;21.156;2023-03-14T07:47:22;37.58;;;18.33;;
32198;SDS011;19221;42.656;21.156;2023-03-14T07:49:47;32.20;;;17.20;;
32198;SDS011;19221;42.656;21.156;2023-03-14T07:52:13;71.88;;;20.15;;
32198;SDS011;19221;42.656;21.156;2023-03-14T07:54:39;40.63;;;17.45;;
32198;SDS011;19221;42.656;21.156;2023-03-14T07:57:04;45.05;;;17.45;;
32198;SDS011;19221;42.656;21.156;2023-03-14T07:59:30;46.88;;;18.58;;
32198;SDS011;19221;42.656;21.156;2023-03-14T08:01:57;38.20;;;17.77;;
32198;SDS011;19221;42.656;21.156;2023-03-14T08:04:22;32.55;;;16.85;;
32198;SDS011;19221;42.656;21.156;2023-03-14T08:06:48;36.92;;;14.98;;
32198;SDS011;19221;42.656;21.156;2023-03-14T08:09:14;39.30;;;16.73;;
32198;SDS011;19221;42.656;21.156;2023-03-14T08:11:40;32.80;;;16.48;;
32198;SDS011;19221;42.656;21.156;2023-03-14T08:14:06;31.67;;;13.70;;
32198;SDS011;19221;42.656;21.156;2023-03-14T08:16:32;42.50;;;15.45;;
32198;SDS011;19221;42.656;21.156;2023-03-14T08:18:57;30.92;;;11.80;;
32198;SDS011;19221;42.656;21.156;2023-03-14T08:21:23;28.50;;;12.98;;
32198;SDS011;19221;42.656;21.156;2023-03-14T08:23:48;39.35;;;12.75;;
32198;SDS011;19221;42.656;21.156;2023-03-14T08:26:14;27.70;;;12.60;;
32198;SDS011;19221;42.656;21.156;2023-03-14T08:28:40;25.95;;;12.75;;
32198;SDS011;19221;42.656;21.156;2023-03-14T08:31:05;30.25;;;13.75;;
32198;SDS011;19221;42.656;21.156;2023-03-14T08:33:32;29.27;;;14.85;;
32198;SDS011;19221;42.656;21.156;2023-03-14T08:35:59;29.23;;;12.98;;
32198;SDS011;19221;42.656;21.156;2023-03-14T08:38:25;28.40;;;11.40;;
32198;SDS011;19221;42.656;21.156;2023-03-14T08:40:58;32.25;;;14.25;;
32198;SDS011;19221;42.656;21.156;2023-03-14T08:43:26;22.27;;;12.02;;
32198;SDS011;19221;42.656;21.156;2023-03-14T08:45:52;22.65;;;10.93;;
32198;SDS011;19221;42.656;21.156;2023-03-14T08:48:18;17.90;;;10.40;;
32198;SDS011;19221;42.656;21.156;2023-03-14T08:50:45;17.23;;;10.70;;
32198;SDS011;19221;42.656;21.156;2023-03-14T08:53:10;17.30;;;10.02;;
32198;SDS011;19221;42.656;21.156;2023-03-14T08:55:36;20.50;;;10.90;;
32198;SDS011;19221;42.656;21.156;2023-03-14T08:58:02;24.73;;;11.02;;
32198;SDS011;19221;42.656;21.156;2023-03-14T09:00:28;22.27;;;11.85;;
32198;SDS011;19221;42.656;21.156;2023-03-14T09:02:53;24.38;;;10.50;;
32198;SDS011;19221;42.656;21.156;2023-03-14T09:05:19;23.05;;;9.68;;
32198;SDS011;19221;42.656;21.156;2023-03-14T09:07:45;21.73;;;10.00;;
32198;SDS011;19221;42.656;21.156;2023-03-14T09:10:10;22.75;;;8.45;;
32198;SDS011;19221;42.656;21.156;2023-03-14T09:12:36;25.58;;;8.98;;
32198;SDS011;19221;42.656;21.156;2023-03-14T09:15:02;17.73;;;8.43;;
32198;SDS011;19221;42.656;21.156;2023-03-14T09:17:28;21.48;;;10.32;;
32198;SDS011;19221;42.656;21.156;2023-03-14T09:19:53;28.63;;;11.55;;
32198;SDS011;19221;42.656;21.156;2023-03-14T09:22:19;27.20;;;10.57;;
32198;SDS011;19221;42.656;21.156;2023-03-14T09:24:45;44.88;;;10.20;;
32198;SDS011;19221;42.656;21.156;2023-03-14T09:27:11;18.98;;;8.63;;
32198;SDS011;19221;42.656;21.156;2023-03-14T09:29:37;32.83;;;9.90;;
32198;SDS011;19221;42.656;21.156;2023-03-14T09:32:03;21.52;;;8.88;;
32198;SDS011;19221;42.656;21.156;2023-03-14T09:34:29;23.80;;;8.55;;
32198;SDS011;19221;42.656;21.156;2023-03-14T09:36:54;22.17;;;9.52;;
32198;SDS011;19221;42.656;21.156;2023-03-14T09:39:20;29.20;;;9.18;;
32198;SDS011;19221;42.656;21.156;2023-03-14T09:41:49;31.65;;;10.70;;
32198;SDS011;19221;42.656;21.156;2023-03-14T09:46:45;41.45;;;11.75;;
32198;SDS011;19221;42.656;21.156;2023-03-14T09:49:19;26.08;;;9.50;;
32198;SDS011;19221;42.656;21.156;2023-03-14T09:51:47;25.50;;;9.23;;
32198;SDS011;19221;42.656;21.156;2023-03-14T09:54:49;24.48;;;8.75;;
32198;SDS011;19221;42.656;21.156;2023-03-14T09:59:31;15.20;;;7.10;;
32198;SDS011;19221;42.656;21.156;2023-03-14T10:02:10;12.45;;;6.65;;
32198;SDS011;19221;42.656;21.156;2023-03-14T10:04:37;23.60;;;8.85;;
32198;SDS011;19221;42.656;21.156;2023-03-14T10:07:08;24.95;;;9.15;;
32198;SDS011;19221;42.656;21.156;2023-03-14T10:09:35;15.80;;;8.15;;
32198;SDS011;19221;42.656;21.156;2023-03-14T10:12:01;22.25;;;10.57;;
32198;SDS011;19221;42.656;21.156;2023-03-14T10:14:31;21.38;;;8.63;;
32198;SDS011;19221;42.656;21.156;2023-03-14T10:17:04;15.07;;;7.95;;
32198;SDS011;19221;42.656;21.156;2023-03-14T10:19:29;32.55;;;11.30;;
32198;SDS011;19221;42.656;21.156;2023-03-14T10:21:55;23.92;;;7.80;;
32198;SDS011;19221;42.656;21.156;2023-03-14T10:24:26;16.15;;;6.90;;
32198;SDS011;19221;42.656;21.156;2023-03-14T10:26:52;17.75;;;7.50;;
32198;SDS011;19221;42.656;21.156;2023-03-14T10:29:18;21.50;;;7.93;;
32198;SDS011;19221;42.656;21.156;2023-03-14T10:31:54;20.85;;;7.57;;
32198;SDS011;19221;42.656;21.156;2023-03-14T10:34:24;24.77;;;10.40;;
32198;SDS011;19221;42.656;21.156;2023-03-14T10:36:54;18.70;;;9.70;;
32198;SDS011;19221;42.656;21.156;2023-03-14T10:39:25;20.02;;;8.40;;
32198;SDS011;19221;42.656;21.156;2023-03-14T10:41:52;20.00;;;10.18;;
32198;SDS011;19221;42.656;21.156;2023-03-14T10:44:20;38.22;;;11.88;;
32198;SDS011;19221;42.656;21.156;2023-03-14T10:47:14;44.45;;;13.77;;
32198;SDS011;19221;42.656;21.156;2023-03-14T10:49:35;42.80;;;11.65;;
32198;SDS011;19221;42.656;21.156;2023-03-14T10:52:02;16.75;;;7.32;;
32198;SDS011;19221;42.656;21.156;2023-03-14T10:54:29;25.85;;;9.00;;
32198;SDS011;19221;42.656;21.156;2023-03-14T10:57:01;25.10;;;7.40;;
32198;SDS011;19221;42.656;21.156;2023-03-14T10:59:33;12.23;;;5.63;;
32198;SDS011;19221;42.656;21.156;2023-03-14T11:02:04;17.77;;;8.98;;
32198;SDS011;19221;42.656;21.156;2023-03-14T11:09:41;23.05;;;9.23;;
32198;SDS011;19221;42.656;21.156;2023-03-14T11:14:54;22.98;;;8.27;;
32198;SDS011;19221;42.656;21.156;2023-03-14T11:17:27;12.18;;;5.40;;
32198;SDS011;19221;42.656;21.156;2023-03-14T11:22:32;18.30;;;7.82;;
32198;SDS011;19221;42.656;21.156;2023-03-14T11:25:13;14.48;;;7.43;;
32198;SDS011;19221;42.656;21.156;2023-03-14T11:37:47;14.73;;;8.35;;
32198;SDS011;19221;42.656;21.156;2023-03-14T11:40:22;31.83;;;10.70;;
32198;SDS011;19221;42.656;21.156;2023-03-14T11:42:52;14.30;;;7.30;;
32198;SDS011;19221;42.656;21.156;2023-03-14T11:45:20;16.42;;;6.53;;
32198;SDS011;19221;42.656;21.156;2023-03-14T11:47:50;26.17;;;7.38;;
32198;SDS011;19221;42.656;21.156;2023-03-14T11:50:25;18.20;;;8.90;;
32198;SDS011;19221;42.656;21.156;2023-03-14T11:55:36;14.10;;;4.75;;
32198;SDS011;19221;42.656;21.156;2023-03-14T11:58:03;18.48;;;6.93;;
32198;SDS011;19221;42.656;21.156;2023-03-14T12:00:34;12.60;;;6.00;;
32198;SDS011;19221;42.656;21.156;2023-03-14T12:06:02;19.65;;;6.82;;
32198;SDS011;19221;42.656;21.156;2023-03-14T12:08:42;11.20;;;4.93;;
32198;SDS011;19221;42.656;21.156;2023-03-14T12:13:47;34.80;;;8.38;;
32198;SDS011;19221;42.656;21.156;2023-03-14T12:18:49;23.88;;;9.80;;
32198;SDS011;19221;42.656;21.156;2023-03-14T12:21:15;31.23;;;9.82;;
32198;SDS011;19221;42.656;21.156;2023-03-14T12:23:42;35.22;;;13.93;;
32198;SDS011;19221;42.656;21.156;2023-03-14T12:28:37;33.65;;;14.80;;
32198;SDS011;19221;42.656;21.156;2023-03-14T12:34:00;27.33;;;10.45;;
32198;SDS011;19221;42.656;21.156;2023-03-14T12:39:13;36.05;;;13.80;;
32198;SDS011;19221;42.656;21.156;2023-03-14T12:41:43;11.82;;;6.00;;
32198;SDS011;19221;42.656;21.156;2023-03-14T12:46:54;45.88;;;12.27;;
32198;SDS011;19221;42.656;21.156;2023-03-14T12:49:19;32.55;;;10.05;;
32198;SDS011;19221;42.656;21.156;2023-03-14T12:51:45;39.33;;;9.73;;
32198;SDS011;19221;42.656;21.156;2023-03-14T13:09:53;9.52;;;4.35;;
32198;SDS011;19221;42.656;21.156;2023-03-14T13:12:22;23.42;;;7.72;;
32198;SDS011;19221;42.656;21.156;2023-03-14T13:14:49;19.67;;;9.02;;
32198;SDS011;19221;42.656;21.156;2023-03-14T13:17:27;18.77;;;5.35;;
32198;SDS011;19221;42.656;21.156;2023-03-14T13:19:53;21.83;;;7.13;;
32198;SDS011;19221;42.656;21.156;2023-03-14T13:22:30;14.38;;;5.40;;
32198;SDS011;19221;42.656;21.156;2023-03-14T13:25:00;27.10;;;10.73;;
32198;SDS011;19221;42.656;21.156;2023-03-14T13:27:26;11.27;;;5.10;;
32198;SDS011;19221;42.656;21.156;2023-03-14T13:29:52;14.98;;;5.50;;
32198;SDS011;19221;42.656;21.156;2023-03-14T13:34:43;17.85;;;5.97;;
32198;SDS011;19221;42.656;21.156;2023-03-14T13:37:15;55.22;;;11.57;;
32198;SDS011;19221;42.656;21.156;2023-03-14T13:39:40;20.63;;;4.97;;
32198;SDS011;19221;42.656;21.156;2023-03-14T13:42:10;12.52;;;5.30;;
32198;SDS011;19221;42.656;21.156;2023-03-14T13:44:38;24.92;;;7.28;;
32198;SDS011;19221;42.656;21.156;2023-03-14T13:47:05;13.40;;;4.40;;
32198;SDS011;19221;42.656;21.156;2023-03-14T13:49:34;18.15;;;6.13;;
32198;SDS011;19221;42.656;21.156;2023-03-14T13:52:02;12.23;;;5.05;;
32198;SDS011;19221;42.656;21.156;2023-03-14T13:54:29;14.38;;;7.25;;
32198;SDS011;19221;42.656;21.156;2023-03-14T13:57:03;19.42;;;6.90;;
32198;SDS011;19221;42.656;21.156;2023-03-14T13:59:30;17.05;;;6.07;;
32198;SDS011;19221;42.656;21.156;2023-03-14T14:01:56;17.50;;;6.72;;
32198;SDS011;19221;42.656;21.156;2023-03-14T14:04:23;31.92;;;8.10;;
32198;SDS011;19221;42.656;21.156;2023-03-14T14:09:16;21.45;;;7.13;;
32198;SDS011;19221;42.656;21.156;2023-03-14T14:11:44;26.95;;;7.45;;
32198;SDS011;19221;42.656;21.156;2023-03-14T14:14:15;15.57;;;5.47;;
32198;SDS011;19221;42.656;21.156;2023-03-14T14:16:44;10.35;;;5.13;;
32198;SDS011;19221;42.656;21.156;2023-03-14T14:19:10;8.30;;;4.65;;
32198;SDS011;19221;42.656;21.156;2023-03-14T14:21:37;15.25;;;5.97;;
32198;SDS011;19221;42.656;21.156;2023-03-14T14:24:02;13.13;;;4.57;;
32198;SDS011;19221;42.656;21.156;2023-03-14T14:26:28;10.85;;;5.32;;
32198;SDS011;19221;42.656;21.156;2023-03-14T14:29:04;8.02;;;4.82;;
32198;SDS011;19221;42.656;21.156;2023-03-14T14:31:30;16.08;;;6.07;;
32198;SDS011;19221;42.656;21.156;2023-03-14T14:33:57;13.52;;;5.60;;
32198;SDS011;19221;42.656;21.156;2023-03-14T14:38:50;15.30;;;5.10;;
32198;SDS011;19221;42.656;21.156;2023-03-14T14:41:15;18.98;;;8.63;;
32198;SDS011;19221;42.656;21.156;2023-03-14T14:43:41;20.08;;;7.55;;
32198;SDS011;19221;42.656;21.156;2023-03-14T14:46:07;27.50;;;8.32;;
32198;SDS011;19221;42.656;21.156;2023-03-14T14:48:36;27.15;;;7.22;;
32198;SDS011;19221;42.656;21.156;2023-03-14T14:51:02;18.92;;;6.57;;
32198;SDS011;19221;42.656;21.156;2023-03-14T14:55:57;22.30;;;8.73;;
32198;SDS011;19221;42.656;21.156;2023-03-14T14:58:24;21.60;;;7.10;;
32198;SDS011;19221;42.656;21.156;2023-03-14T15:00:57;12.48;;;6.00;;
32198;SDS011;19221;42.656;21.156;2023-03-14T15:03:27;21.20;;;10.05;;
32198;SDS011;19221;42.656;21.156;2023-03-14T15:05:54;28.77;;;10.88;;
32198;SDS011;19221;42.656;21.156;2023-03-14T15:08:26;41.00;;;12.50;;
32198;SDS011;19221;42.656;21.156;2023-03-14T15:10:53;27.38;;;9.77;;
32198;SDS011;19221;42.656;21.156;2023-03-14T15:13:19;35.15;;;10.93;;
32198;SDS011;19221;42.656;21.156;2023-03-14T15:15:44;40.42;;;12.65;;
32198;SDS011;19221;42.656;21.156;2023-03-14T15:18:15;29.17;;;11.63;;
32198;SDS011;19221;42.656;21.156;2023-03-14T15:20:41;24.17;;;9.65;;
32198;SDS011;19221;42.656;21.156;2023-03-14T15:23:09;32.92;;;13.25;;
32198;SDS011;19221;42.656;21.156;2023-03-14T15:25:34;31.70;;;13.35;;
32198;SDS011;19221;42.656;21.156;2023-03-14T15:28:00;26.50;;;10.35;;
32198;SDS011;19221;42.656;21.156;2023-03-14T15:30:26;20.20;;;8.52;;